createdAt,value
2018-11-10T00:01:27.676Z,18.04
2018-11-10T00:03:56.282Z,17.61
2018-11-10T00:06:25.194Z,17.98
2018-11-10T00:08:53.163Z,18.25
2018-11-10T00:11:20.680Z,18.67
2018-11-10T00:13:48.161Z,18.31
2018-11-10T00:16:16.149Z,18.37
2018-11-10T00:18:43.784Z,18.45
2018-11-10T00:21:11.629Z,18.46
2018-11-10T00:23:39.040Z,17.85
2018-11-10T00:26:07.603Z,18.47
2018-11-10T00:28:35.598Z,18.66
2018-11-10T00:31:03.140Z,17.64
2018-11-10T00:33:33.444Z,17.98
2018-11-10T00:36:00.908Z,17.17
2018-11-10T00:38:28.392Z,17.57
2018-11-10T00:40:57.562Z,17.77
2018-11-10T00:43:25.019Z,18.25
2018-11-10T00:45:53.040Z,18.72
2018-11-10T00:48:20.621Z,18.58
2018-11-10T00:50:48.056Z,18.75
2018-11-10T00:53:16.108Z,18.68
2018-11-10T00:55:45.589Z,18.46
2018-11-10T00:58:15.549Z,18.95
2018-11-10T01:00:44.204Z,18.50
2018-11-10T01:03:12.118Z,18.94
2018-11-10T01:05:40.622Z,18.96
2018-11-10T01:08:08.452Z,18.48
2018-11-10T01:10:35.987Z,18.27
2018-11-10T01:13:03.470Z,18.57
2018-11-10T01:15:31.030Z,18.59
2018-11-10T01:17:58.962Z,18.64
2018-11-10T01:20:26.461Z,18.53
2018-11-10T01:22:54.888Z,18.54
2018-11-10T01:25:22.489Z,17.85
2018-11-10T01:27:50.031Z,17.14
2018-11-10T01:30:17.831Z,17.74
2018-11-10T01:32:47.297Z,17.33
2018-11-10T01:35:15.557Z,18.00
2018-11-10T01:37:43.107Z,18.31
2018-11-10T01:40:11.962Z,17.61
2018-11-10T01:42:40.326Z,17.90
2018-11-10T01:45:11.077Z,17.53
2018-11-10T01:47:40.186Z,17.87
2018-11-10T01:50:08.309Z,18.30
2018-11-10T01:52:35.746Z,17.94
2018-11-10T01:55:03.715Z,18.43
2018-11-10T01:57:31.126Z,18.44
2018-11-10T01:59:59.008Z,18.43
2018-11-10T02:02:26.544Z,17.96
2018-11-10T02:04:53.997Z,18.45
2018-11-10T02:07:22.103Z,18.62
2018-11-10T02:09:51.465Z,18.82
2018-11-10T02:12:19.432Z,18.39
2018-11-10T02:14:48.026Z,18.75
2018-11-10T02:17:16.374Z,18.71
2018-11-10T02:19:44.520Z,19.17
2018-11-10T02:22:12.186Z,19.16
2018-11-10T02:24:41.692Z,19.08
2018-11-10T02:27:15.341Z,19.24
2018-11-10T02:29:42.807Z,18.09
2018-11-10T02:32:10.713Z,17.93
2018-11-10T02:34:38.185Z,18.48
2018-11-10T02:37:07.422Z,18.75
2018-11-10T02:39:34.865Z,18.45
2018-11-10T02:42:02.364Z,18.74
2018-11-10T02:44:30.386Z,18.82
2018-11-10T02:46:57.922Z,18.78
2018-11-10T02:49:25.877Z,18.29
2018-11-10T02:51:53.468Z,18.21
2018-11-10T02:54:21.062Z,18.31
2018-11-10T02:56:49.066Z,18.76
2018-11-10T02:59:17.040Z,18.60
2018-11-10T03:01:46.065Z,18.60
2018-11-10T03:04:13.518Z,18.71
2018-11-10T03:06:40.978Z,18.82
2018-11-10T03:09:09.289Z,19.09
2018-11-10T03:11:37.264Z,18.81
2018-11-10T03:14:05.609Z,19.35
2018-11-10T03:16:33.198Z,19.52
2018-11-10T03:19:00.691Z,19.88
2018-11-10T03:21:29.349Z,19.58
2018-11-10T03:23:57.287Z,20.13
2018-11-10T03:26:26.809Z,20.35
2018-11-10T03:28:54.828Z,20.14
2018-11-10T03:31:22.657Z,20.03
2018-11-10T03:33:50.859Z,20.44
2018-11-10T03:36:20.543Z,20.15
2018-11-10T03:38:48.853Z,19.14
2018-11-10T03:41:16.289Z,20.04
2018-11-10T03:43:43.741Z,20.10
2018-11-10T03:46:11.784Z,20.14
2018-11-10T03:48:39.330Z,19.56
2018-11-10T03:51:08.165Z,19.98
2018-11-10T03:53:35.753Z,19.60
2018-11-10T03:56:03.913Z,19.59
2018-11-10T03:58:32.255Z,19.63
2018-11-10T04:01:00.917Z,19.40
2018-11-10T04:03:28.921Z,19.80
2018-11-10T04:05:56.888Z,19.59
2018-11-10T04:08:24.321Z,20.01
2018-11-10T04:10:52.089Z,19.35
2018-11-10T04:13:20.345Z,19.62
2018-11-10T04:15:48.230Z,19.80
2018-11-10T04:18:15.595Z,20.10
2018-11-10T04:20:43.892Z,19.69
2018-11-10T04:23:11.822Z,19.61
2018-11-10T04:25:39.302Z,19.86
2018-11-10T04:28:08.167Z,20.12
2018-11-10T04:30:35.663Z,20.03
2018-11-10T04:33:03.169Z,19.50
2018-11-10T04:35:31.476Z,19.76
2018-11-10T04:37:59.095Z,19.80
2018-11-10T04:40:28.536Z,19.97
2018-11-10T04:42:56.891Z,19.49
2018-11-10T04:45:24.305Z,19.59
2018-11-10T04:47:52.183Z,19.81
2018-11-10T04:50:19.762Z,19.53
2018-11-10T04:52:47.850Z,19.56
2018-11-10T04:55:15.316Z,19.30
2018-11-10T04:57:45.713Z,18.66
2018-11-10T05:00:14.933Z,18.93
2018-11-10T05:02:43.550Z,19.09
2018-11-10T05:05:12.341Z,19.37
2018-11-10T05:07:40.025Z,18.83
2018-11-10T05:10:08.559Z,18.55
2018-11-10T05:12:36.502Z,18.31
2018-11-10T05:15:05.362Z,18.62
2018-11-10T05:17:33.318Z,18.72
2018-11-10T05:20:00.826Z,18.77
2018-11-10T05:22:28.229Z,18.70
2018-11-10T05:24:56.107Z,19.10
2018-11-10T05:27:24.096Z,18.84
2018-11-10T05:29:52.980Z,18.80
2018-11-10T05:32:20.373Z,19.14
2018-11-10T05:34:47.850Z,18.90
2018-11-10T05:37:15.773Z,19.08
2018-11-10T05:39:43.389Z,17.88
2018-11-10T05:42:11.799Z,18.47
2018-11-10T05:44:39.868Z,18.88
2018-11-10T05:47:07.404Z,19.16
2018-11-10T05:49:36.254Z,19.32
2018-11-10T05:52:04.010Z,18.80
2018-11-10T05:54:33.636Z,19.44
2018-11-10T05:57:01.125Z,19.44
2018-11-10T05:59:28.606Z,19.68
2018-11-10T06:01:56.605Z,19.88
2018-11-10T06:04:24.100Z,19.77
2018-11-10T06:06:52.031Z,19.29
2018-11-10T06:09:19.615Z,18.63
2018-11-10T06:11:47.137Z,18.69
2018-11-10T06:14:15.150Z,19.03
2018-11-10T06:16:43.324Z,19.23
2018-11-10T06:19:12.688Z,19.16
2018-11-10T06:21:40.181Z,19.44
2018-11-10T06:24:07.645Z,19.57
2018-11-10T06:26:35.678Z,19.55
2018-11-10T06:29:03.103Z,18.92
2018-11-10T06:31:31.244Z,18.96
2018-11-10T06:33:58.780Z,18.65
2018-11-10T06:36:26.248Z,18.40
2018-11-10T06:38:54.185Z,18.89
2018-11-10T06:41:23.126Z,19.24
2018-11-10T06:43:51.369Z,18.80
2018-11-10T06:46:18.802Z,18.92
2018-11-10T06:48:47.581Z,18.75
2018-11-10T06:51:15.527Z,19.06
2018-11-10T06:53:43.189Z,19.03
2018-11-10T06:56:18.410Z,19.12
2018-11-10T06:58:45.849Z,18.99
2018-11-10T07:01:13.334Z,19.10
2018-11-10T07:03:42.073Z,19.26
2018-11-10T07:06:09.629Z,18.79
2018-11-10T07:08:37.522Z,18.95
2018-11-10T07:11:05.135Z,18.43
2018-11-10T07:13:33.003Z,17.44
2018-11-10T07:16:01.358Z,17.73
2018-11-10T07:18:30.722Z,17.49
2018-11-10T07:20:58.818Z,17.80
2018-11-10T07:23:26.325Z,17.83
2018-11-10T07:25:53.998Z,17.54
2018-11-10T07:28:21.821Z,17.53
2018-11-10T07:30:50.304Z,17.81
2018-11-10T07:33:18.402Z,17.64
2018-11-10T07:35:45.918Z,17.08
2018-11-10T07:38:14.508Z,17.60
2018-11-10T07:40:43.405Z,17.84
2018-11-10T07:43:11.195Z,17.69
2018-11-10T07:45:39.982Z,17.80
2018-11-10T07:48:07.511Z,17.79
2018-11-10T07:50:34.977Z,18.07
2018-11-10T07:53:02.851Z,18.28
2018-11-10T07:55:30.357Z,18.55
2018-11-10T07:57:58.288Z,18.39
2018-11-10T08:00:25.763Z,18.47
2018-11-10T08:02:53.841Z,18.67
2018-11-10T08:05:22.172Z,18.51
2018-11-10T08:07:49.622Z,18.31
2018-11-10T08:10:18.816Z,18.60
2018-11-10T08:12:47.316Z,18.55
2018-11-10T08:15:16.189Z,17.50
2018-11-10T08:17:44.742Z,17.95
2018-11-10T08:20:13.472Z,17.89
2018-11-10T08:22:41.500Z,17.78
2018-11-10T08:25:11.480Z,18.06
2018-11-10T08:27:39.109Z,18.55
2018-11-10T08:30:09.371Z,18.68
2018-11-10T08:32:36.836Z,19.01
2018-11-10T08:35:06.024Z,19.18
2018-11-10T08:37:33.564Z,18.80
2018-11-10T08:40:01.153Z,19.01
2018-11-10T08:42:29.054Z,18.85
2018-11-10T08:44:56.518Z,18.99
2018-11-10T08:47:24.711Z,18.28
2018-11-10T08:49:52.179Z,18.27
2018-11-10T08:52:19.632Z,18.55
2018-11-10T08:54:48.171Z,18.87
2018-11-10T08:57:15.706Z,18.87
2018-11-10T08:59:44.706Z,18.93
2018-11-10T09:02:12.268Z,18.70
2018-11-10T09:04:40.589Z,18.93
2018-11-10T09:07:08.886Z,19.09
2018-11-10T09:09:37.705Z,19.20
2018-11-10T09:12:08.503Z,19.40
2018-11-10T09:14:36.102Z,19.66
2018-11-10T09:17:05.028Z,19.23
2018-11-10T09:19:33.122Z,19.61
2018-11-10T09:22:01.265Z,19.74
2018-11-10T09:24:29.597Z,19.82
2018-11-10T09:26:57.097Z,19.80
2018-11-10T09:29:24.595Z,19.63
2018-11-10T09:31:52.568Z,19.18
2018-11-10T09:34:20.039Z,19.31
2018-11-10T09:36:48.000Z,19.53
2018-11-10T09:39:15.595Z,19.84
2018-11-10T09:41:43.115Z,20.00
2018-11-10T09:44:11.049Z,19.86
2018-11-10T09:46:38.748Z,19.88
2018-11-10T09:49:07.629Z,19.87
2018-11-10T09:51:35.545Z,20.08
2018-11-10T09:54:04.059Z,20.37
2018-11-10T09:56:31.936Z,20.24
2018-11-10T09:58:59.389Z,20.33
2018-11-10T10:01:27.357Z,20.53
2018-11-10T10:03:54.726Z,20.04
2018-11-10T10:06:22.194Z,20.37
2018-11-10T10:08:50.394Z,20.73
2018-11-10T10:11:17.828Z,20.69
2018-11-10T10:13:47.534Z,20.91
2018-11-10T10:16:15.181Z,21.10
2018-11-10T10:18:42.612Z,21.16
2018-11-10T10:21:10.681Z,21.12
2018-11-10T10:23:38.226Z,21.21
2018-11-10T10:26:06.185Z,21.15
2018-11-10T10:28:33.735Z,21.29
2018-11-10T10:31:02.708Z,21.24
2018-11-10T10:33:30.545Z,21.06
2018-11-10T10:35:58.036Z,21.17
2018-11-10T10:38:26.650Z,20.59
2018-11-10T10:40:54.083Z,20.75
2018-11-10T10:43:21.812Z,20.28
2018-11-10T10:45:49.865Z,20.30
2018-11-10T10:48:17.342Z,20.08
2018-11-10T10:50:45.379Z,20.15
2018-11-10T10:53:12.978Z,20.35
2018-11-10T10:55:40.474Z,20.47
2018-11-10T10:58:08.498Z,20.43
2018-11-10T11:00:41.702Z,20.63
2018-11-10T11:03:16.452Z,20.67
2018-11-10T11:05:49.030Z,20.32
2018-11-10T11:08:17.042Z,20.15
2018-11-10T11:10:44.507Z,19.68
2018-11-10T11:13:12.643Z,19.34
2018-11-10T11:15:40.183Z,19.54
2018-11-10T11:18:07.606Z,19.81
2018-11-10T11:20:35.641Z,20.08
2018-11-10T11:23:03.166Z,20.28
2018-11-10T11:25:32.388Z,20.20
2018-11-10T11:28:00.473Z,19.97
2018-11-10T11:30:27.929Z,19.73
2018-11-10T11:32:55.977Z,19.84
2018-11-10T11:35:23.593Z,19.91
2018-11-10T11:37:51.457Z,19.90
2018-11-10T11:40:18.902Z,19.81
2018-11-10T11:42:46.620Z,19.96
2018-11-10T11:45:14.572Z,20.12
2018-11-10T11:47:42.730Z,20.32
2018-11-10T11:50:12.622Z,20.42
2018-11-10T11:52:40.743Z,20.27
2018-11-10T11:55:09.044Z,19.30
2018-11-10T11:57:37.170Z,19.75
2018-11-10T12:00:05.980Z,19.92
2018-11-10T12:02:34.038Z,19.94
2018-11-10T12:05:02.520Z,20.01
2018-11-10T12:07:30.049Z,19.55
2018-11-10T12:09:57.963Z,19.91
2018-11-10T12:12:25.541Z,20.17
2018-11-10T12:14:54.784Z,20.16
2018-11-10T12:17:22.292Z,20.30
2018-11-10T12:19:49.884Z,20.46
2018-11-10T12:22:17.799Z,20.51
2018-11-10T12:24:45.482Z,20.69
2018-11-10T12:27:13.687Z,20.80
2018-11-10T12:29:41.366Z,20.68
2018-11-10T12:32:08.860Z,20.28
2018-11-10T12:34:36.942Z,20.30
2018-11-10T12:37:04.531Z,20.55
2018-11-10T12:39:33.922Z,20.52
2018-11-10T12:42:03.320Z,20.49
2018-11-10T12:44:30.798Z,20.64
2018-11-10T12:46:58.749Z,20.80
2018-11-10T12:49:26.301Z,20.83
2018-11-10T12:51:54.333Z,20.96
2018-11-10T12:54:21.770Z,20.90
2018-11-10T12:56:49.309Z,20.88
2018-11-10T12:59:17.224Z,20.48
2018-11-10T13:01:44.731Z,20.19
2018-11-10T13:04:13.612Z,19.89
2018-11-10T13:06:41.079Z,20.24
2018-11-10T13:09:09.661Z,19.51
2018-11-10T13:11:38.135Z,19.87
2018-11-10T13:14:06.500Z,20.01
2018-11-10T13:16:34.812Z,19.65
2018-11-10T13:19:02.867Z,20.16
2018-11-10T13:21:30.327Z,20.46
2018-11-10T13:23:58.383Z,20.13
2018-11-10T13:26:26.242Z,20.58
2018-11-10T13:28:56.261Z,20.70
2018-11-10T13:31:24.402Z,20.63
2018-11-10T13:33:51.629Z,20.81
2018-11-10T13:36:19.665Z,20.18
2018-11-10T13:38:47.218Z,20.67
2018-11-10T13:41:15.259Z,20.68
2018-11-10T13:43:42.789Z,20.64
2018-11-10T13:46:10.242Z,20.28
2018-11-10T13:48:38.110Z,20.39
2018-11-10T13:51:06.113Z,20.66
2018-11-10T13:53:35.407Z,20.52
2018-11-10T13:56:03.387Z,20.87
2018-11-10T13:58:30.962Z,20.82
2018-11-10T14:00:58.940Z,20.94
2018-11-10T14:03:26.417Z,20.93
2018-11-10T14:05:54.405Z,21.07
2018-11-10T14:08:21.905Z,20.98
2018-11-10T14:10:49.437Z,21.02
2018-11-10T14:13:17.338Z,20.97
2018-11-10T14:15:44.794Z,21.15
2018-11-10T14:18:14.195Z,20.82
2018-11-10T14:20:41.734Z,20.53
2018-11-10T14:23:09.191Z,20.46
2018-11-10T14:25:37.092Z,20.85
2018-11-10T14:28:04.781Z,20.43
2018-11-10T14:30:33.056Z,20.59
2018-11-10T14:33:00.874Z,20.72
2018-11-10T14:35:28.392Z,20.80
2018-11-10T14:37:56.518Z,20.61
2018-11-10T14:40:24.102Z,20.79
2018-11-10T14:42:52.603Z,20.97
2018-11-10T14:45:20.269Z,20.67
2018-11-10T14:47:48.996Z,20.97
2018-11-10T14:50:18.167Z,20.69
2018-11-10T14:52:45.855Z,21.02
2018-11-10T14:55:14.451Z,21.01
2018-11-10T14:57:42.170Z,20.88
2018-11-10T15:00:13.879Z,21.09
2018-11-10T15:02:42.065Z,21.02
2018-11-10T15:05:10.508Z,21.01
2018-11-10T15:07:39.487Z,20.98
2018-11-10T15:10:09.205Z,20.79
2018-11-10T15:12:37.389Z,21.00
2018-11-10T15:15:07.118Z,21.08
2018-11-10T15:17:35.006Z,21.19
2018-11-10T15:20:03.350Z,21.37
2018-11-10T15:22:30.761Z,21.38
2018-11-10T15:24:58.249Z,21.20
2018-11-10T15:27:26.209Z,20.89
2018-11-10T15:29:53.977Z,21.21
2018-11-10T15:32:22.996Z,21.23
2018-11-10T15:34:51.433Z,21.01
2018-11-10T15:37:19.999Z,20.52
2018-11-10T15:39:49.653Z,20.50
2018-11-10T15:42:17.889Z,20.54
2018-11-10T15:44:46.277Z,20.79
2018-11-10T15:47:14.403Z,20.99
2018-11-10T15:49:41.893Z,21.12
2018-11-10T15:52:09.826Z,21.15
2018-11-10T15:54:37.417Z,21.29
2018-11-10T15:57:06.628Z,21.26
2018-11-10T15:59:34.185Z,20.32
2018-11-10T16:02:02.487Z,20.40
2018-11-10T16:04:31.017Z,20.78
2018-11-10T16:06:59.087Z,20.87
2018-11-10T16:09:26.981Z,20.97
2018-11-10T16:11:54.726Z,21.18
2018-11-10T16:14:22.325Z,21.08
2018-11-10T16:16:50.794Z,21.26
2018-11-10T16:19:18.540Z,21.02
2018-11-10T16:21:47.863Z,21.04
2018-11-10T16:24:15.566Z,21.08
2018-11-10T16:26:43.052Z,21.09
2018-11-10T16:32:08.130Z,21.29
2018-11-10T16:34:36.093Z,21.29
2018-11-10T16:37:04.160Z,20.95
2018-11-10T16:39:31.729Z,20.92
2018-11-10T16:41:59.230Z,21.02
2018-11-10T16:44:28.846Z,20.63
2018-11-10T16:46:56.348Z,21.25
2018-11-10T16:49:24.065Z,21.15
2018-11-10T16:51:51.586Z,21.42
2018-11-10T16:54:19.054Z,21.27
2018-11-10T16:56:47.700Z,21.40
2018-11-10T16:59:15.716Z,21.10
2018-11-10T17:01:43.140Z,20.42
2018-11-10T17:04:11.290Z,20.96
2018-11-10T17:06:39.725Z,21.26
2018-11-10T17:09:11.348Z,21.16
2018-11-10T17:11:39.014Z,21.06
2018-11-10T17:14:07.191Z,21.08
2018-11-10T17:16:34.822Z,21.09
2018-11-10T17:19:02.390Z,21.02
2018-11-10T17:21:30.946Z,21.01
2018-11-10T17:23:58.568Z,21.15
2018-11-10T17:26:26.400Z,20.91
2018-11-10T17:28:54.330Z,21.28
2018-11-10T17:31:22.396Z,21.43
2018-11-10T17:33:51.330Z,21.42
2018-11-10T17:36:19.064Z,21.29
2018-11-10T17:38:46.811Z,21.33
2018-11-10T17:41:14.796Z,21.24
2018-11-10T17:43:42.336Z,21.30
2018-11-10T17:46:10.720Z,21.09
2018-11-10T17:48:38.403Z,20.97
2018-11-10T17:57:52.045Z,20.32
2018-11-10T18:00:19.513Z,20.43
2018-11-10T18:02:47.057Z,20.53
2018-11-10T18:05:16.547Z,20.94
2018-11-10T18:07:44.291Z,20.57
2018-11-10T18:10:15.539Z,20.86
2018-11-10T18:12:43.911Z,20.96
2018-11-10T18:15:11.817Z,21.13
2018-11-10T18:17:39.650Z,21.19
2018-11-10T18:20:08.141Z,21.00
2018-11-10T18:22:36.493Z,20.96
2018-11-10T18:25:04.381Z,20.44
2018-11-10T18:27:33.093Z,21.01
2018-11-10T18:30:00.632Z,20.81
2018-11-10T18:32:28.271Z,20.45
2018-11-10T18:34:58.072Z,20.76
2018-11-10T18:37:25.690Z,20.96
2018-11-10T18:39:53.234Z,20.94
2018-11-10T18:42:21.043Z,20.57
2018-11-10T18:44:48.534Z,20.33
2018-11-10T18:47:17.619Z,20.45
2018-11-10T18:49:45.452Z,20.92
2018-11-10T18:52:13.027Z,21.17
2018-11-10T18:54:40.529Z,20.87
2018-11-10T18:57:08.442Z,21.00
2018-11-10T18:59:37.963Z,20.54
2018-11-10T19:02:05.646Z,20.66
2018-11-10T19:04:34.508Z,20.57
2018-11-10T19:07:01.958Z,20.67
2018-11-10T19:09:29.485Z,20.68
2018-11-10T19:11:58.165Z,20.74
2018-11-10T19:14:25.624Z,20.91
2018-11-10T19:16:53.268Z,20.80
2018-11-10T19:19:21.873Z,21.04
2018-11-10T19:21:49.325Z,21.12
2018-11-10T19:24:18.569Z,21.28
2018-11-10T19:26:47.009Z,21.36
2018-11-10T19:29:14.530Z,21.41
2018-11-10T19:31:41.969Z,21.47
2018-11-10T19:34:09.698Z,21.39
2018-11-10T19:36:38.610Z,21.44
2018-11-10T19:39:08.363Z,21.50
2018-11-10T19:41:36.100Z,21.53
2018-11-10T19:44:03.527Z,21.44
2018-11-10T19:46:31.055Z,21.15
2018-11-10T19:49:00.036Z,21.24
2018-11-10T19:51:27.628Z,20.48
2018-11-10T19:53:54.850Z,20.75
2018-11-10T19:56:23.570Z,20.42
2018-11-10T19:58:51.034Z,20.72
2018-11-10T20:01:19.405Z,20.60
2018-11-10T20:03:46.963Z,20.33
2018-11-10T20:06:14.456Z,20.47
2018-11-10T20:08:42.744Z,20.25
2018-11-10T20:11:10.937Z,19.91
2018-11-10T20:13:40.256Z,20.05
2018-11-10T20:16:08.258Z,20.12
2018-11-10T20:18:36.696Z,19.79
2018-11-10T20:21:04.434Z,19.83
2018-11-10T20:23:32.919Z,20.00
2018-11-10T20:26:04.742Z,19.70
2018-11-10T20:28:32.568Z,19.19
2018-11-10T20:31:00.069Z,19.78
2018-11-10T20:33:27.701Z,20.14
2018-11-10T20:35:55.288Z,19.93
2018-11-10T20:38:25.723Z,20.21
2018-11-10T20:40:54.205Z,20.36
2018-11-10T20:43:22.237Z,20.41
2018-11-10T20:45:49.760Z,20.55
2018-11-10T20:48:18.552Z,20.65
2018-11-10T20:50:48.455Z,20.78
2018-11-10T20:53:16.641Z,20.82
2018-11-10T20:55:45.654Z,20.74
2018-11-10T20:58:13.159Z,20.43
2018-11-10T21:00:40.995Z,20.18
2018-11-10T21:03:14.320Z,20.51
2018-11-10T21:05:42.264Z,20.23
2018-11-10T21:08:11.739Z,20.29
2018-11-10T21:10:39.972Z,20.53
2018-11-10T21:13:07.509Z,20.57
2018-11-10T21:15:37.274Z,20.72
2018-11-10T21:18:04.825Z,20.68
2018-11-10T21:20:32.301Z,20.55
2018-11-10T21:22:59.841Z,20.78
2018-11-10T21:25:27.321Z,20.92
2018-11-10T21:27:55.706Z,20.93
2018-11-10T21:30:23.204Z,20.86
2018-11-10T21:32:50.844Z,20.90
2018-11-10T21:35:18.481Z,20.58
2018-11-10T21:37:45.885Z,20.65
2018-11-10T21:40:16.579Z,20.51
2018-11-10T21:42:44.311Z,20.77
2018-11-10T21:45:12.684Z,20.86
2018-11-10T21:47:40.923Z,20.86
2018-11-10T21:50:10.947Z,20.81
2018-11-10T21:52:40.992Z,20.15
2018-11-10T21:55:10.590Z,20.04
2018-11-10T21:57:40.038Z,20.17
2018-11-10T22:00:10.279Z,20.11
2018-11-10T22:02:38.253Z,20.41
2018-11-10T22:05:07.019Z,20.45
2018-11-10T22:07:34.620Z,20.46
2018-11-10T22:10:02.309Z,19.79
2018-11-10T22:12:29.676Z,20.16
2018-11-10T22:14:57.130Z,20.37
2018-11-10T22:17:25.642Z,20.32
2018-11-10T22:19:53.072Z,20.22
2018-11-10T22:22:20.642Z,20.54
2018-11-10T22:24:49.270Z,20.72
2018-11-10T22:27:16.881Z,20.78
2018-11-10T22:29:46.626Z,20.47
2018-11-10T22:32:15.175Z,20.68
2018-11-10T22:34:43.308Z,20.76
2018-11-10T22:37:10.845Z,20.87
2018-11-10T22:39:38.637Z,20.96
2018-11-10T22:42:06.930Z,20.93
2018-11-10T22:44:34.874Z,20.59
2018-11-10T22:47:02.396Z,20.53
2018-11-10T22:49:29.813Z,20.60
2018-11-10T22:51:57.297Z,20.57
2018-11-10T22:54:26.932Z,20.64
2018-11-10T22:56:54.554Z,20.40
2018-11-10T22:59:22.108Z,20.55
2018-11-10T23:01:49.642Z,20.58
2018-11-10T23:04:18.030Z,20.65
2018-11-10T23:06:47.726Z,20.25
2018-11-10T23:09:15.745Z,19.98
2018-11-10T23:11:43.869Z,20.10
2018-11-10T23:14:11.315Z,20.33
2018-11-10T23:16:38.872Z,20.33
2018-11-10T23:19:07.689Z,19.82
2018-11-10T23:21:35.300Z,20.24
2018-11-10T23:24:02.904Z,20.17
2018-11-10T23:26:30.397Z,20.21
2018-11-10T23:28:57.829Z,20.01
2018-11-10T23:31:26.282Z,19.89
2018-11-10T23:33:53.790Z,19.69
2018-11-10T23:36:21.297Z,20.02
2018-11-10T23:38:48.778Z,20.24
2018-11-10T23:41:16.311Z,20.09
2018-11-10T23:43:45.545Z,19.88
2018-11-10T23:46:13.309Z,19.08
2018-11-10T23:48:40.789Z,18.96
2018-11-10T23:51:08.288Z,19.39
2018-11-10T23:53:35.865Z,19.23
2018-11-10T23:56:04.333Z,19.67
2018-11-10T23:58:31.818Z,19.44
